KAC8057 OKKK-OKKK
Flight info
| Callsign | KAC8057 |
|---|---|
| Flight time | 0h 17m |
| Altitude | 380 |
| Route | ALVAX5F/33L ALVAX TABTO KUTNO OKKK |
| Aircraft | B77W/H-V/N |
Departure
| Time | 2026-05-05 17:07 |
|---|---|
| Airport | Kuwait International Airport (OKKK) |
Arrival
| Time | 2026-05-05 17:24 |
|---|---|
| Airport | Kuwait International Airport (OKKK) |
| Time | Latitude | Longitude | Altitude | Speed | Heading |
|---|---|---|---|---|---|
| 2026-05-05 16:40 | 29.23815 | 47.97136 | 159 ft | 0 kts | 89° |
| 2026-05-05 16:50 | 29.23815 | 47.97130 | 159 ft | 3 kts | 89° |
| 2026-05-05 16:50 | 29.23814 | 47.97098 | 158 ft | 4 kts | 88° |
| 2026-05-05 16:50 | 29.23811 | 47.97081 | 158 ft | 1 kts | 45° |
| 2026-05-05 16:50 | 29.23803 | 47.97076 | 158 ft | 1 kts | 1° |
| 2026-05-05 16:51 | 29.23782 | 47.97082 | 158 ft | 3 kts | 348° |
| 2026-05-05 16:51 | 29.23756 | 47.97088 | 158 ft | 3 kts | 349° |
| 2026-05-05 16:51 | 29.23740 | 47.97093 | 158 ft | 0 kts | 339° |
| 2026-05-05 16:51 | 29.23747 | 47.97090 | 158 ft | 3 kts | 339° |
| 2026-05-05 16:52 | 29.23770 | 47.97073 | 158 ft | 4 kts | 321° |
| 2026-05-05 16:52 | 29.23785 | 47.97058 | 157 ft | 0 kts | 318° |
| 2026-05-05 16:59 | 29.23786 | 47.97056 | 157 ft | 1 kts | 318° |
| 2026-05-05 16:59 | 29.23795 | 47.97044 | 157 ft | 2 kts | 290° |
| 2026-05-05 17:00 | 29.23797 | 47.97011 | 156 ft | 5 kts | 258° |
| 2026-05-05 17:00 | 29.23773 | 47.96959 | 155 ft | 8 kts | 240° |
| 2026-05-05 17:00 | 29.23741 | 47.96886 | 154 ft | 11 kts | 244° |
| 2026-05-05 17:00 | 29.23702 | 47.96793 | 152 ft | 14 kts | 244° |
| 2026-05-05 17:01 | 29.23670 | 47.96712 | 151 ft | 10 kts | 246° |
| 2026-05-05 17:01 | 29.23618 | 47.96650 | 150 ft | 11 kts | 195° |
| 2026-05-05 17:01 | 29.23539 | 47.96671 | 150 ft | 12 kts | 155° |
| 2026-05-05 17:01 | 29.23460 | 47.96712 | 151 ft | 12 kts | 155° |
| 2026-05-05 17:02 | 29.23381 | 47.96754 | 152 ft | 12 kts | 155° |
| 2026-05-05 17:02 | 29.23306 | 47.96793 | 153 ft | 12 kts | 155° |
| 2026-05-05 17:02 | 29.23226 | 47.96836 | 153 ft | 12 kts | 155° |
| 2026-05-05 17:02 | 29.23143 | 47.96880 | 154 ft | 13 kts | 155° |
| 2026-05-05 17:03 | 29.23064 | 47.96922 | 157 ft | 11 kts | 155° |
| 2026-05-05 17:03 | 29.22993 | 47.96960 | 159 ft | 11 kts | 155° |
| 2026-05-05 17:03 | 29.22905 | 47.97007 | 160 ft | 18 kts | 155° |
| 2026-05-05 17:03 | 29.22759 | 47.97083 | 161 ft | 27 kts | 155° |
| 2026-05-05 17:04 | 29.22580 | 47.97177 | 165 ft | 26 kts | 155° |
| 2026-05-05 17:04 | 29.22414 | 47.97265 | 168 ft | 25 kts | 153° |
| 2026-05-05 17:04 | 29.22251 | 47.97355 | 170 ft | 26 kts | 155° |
| 2026-05-05 17:04 | 29.22084 | 47.97443 | 172 ft | 26 kts | 155° |
| 2026-05-05 17:05 | 29.21915 | 47.97532 | 173 ft | 26 kts | 155° |
| 2026-05-05 17:05 | 29.21751 | 47.97622 | 175 ft | 25 kts | 155° |
| 2026-05-05 17:05 | 29.21592 | 47.97704 | 177 ft | 24 kts | 155° |
| 2026-05-05 17:05 | 29.21445 | 47.97783 | 180 ft | 22 kts | 155° |
| 2026-05-05 17:06 | 29.21307 | 47.97850 | 183 ft | 20 kts | 173° |
| 2026-05-05 17:06 | 29.21252 | 47.97741 | 181 ft | 16 kts | 282° |
| 2026-05-05 17:06 | 29.21316 | 47.97627 | 179 ft | 16 kts | 305° |
| 2026-05-05 17:06 | 29.21423 | 47.97549 | 179 ft | 30 kts | 335° |
| 2026-05-05 17:07 | 29.21964 | 47.97261 | 171 ft | 148 kts | 335° |
| 2026-05-05 17:07 | 29.23161 | 47.96635 | 863 ft | 216 kts | 335° |
| 2026-05-05 17:07 | 29.24567 | 47.95914 | 1961 ft | 244 kts | 336° |
| 2026-05-05 17:07 | 29.26197 | 47.95094 | 2980 ft | 266 kts | 336° |
| 2026-05-05 17:08 | 29.27878 | 47.94268 | 3864 ft | 256 kts | 337° |
| 2026-05-05 17:08 | 29.29556 | 47.93495 | 4425 ft | 270 kts | 339° |
| 2026-05-05 17:08 | 29.31321 | 47.92714 | 5232 ft | 275 kts | 339° |
| 2026-05-05 17:08 | 29.33078 | 47.91923 | 6277 ft | 270 kts | 338° |
| 2026-05-05 17:09 | 29.34799 | 47.91109 | 7143 ft | 271 kts | 337° |
| 2026-05-05 17:09 | 29.36506 | 47.90214 | 7956 ft | 273 kts | 335° |
| 2026-05-05 17:09 | 29.38322 | 47.89570 | 8690 ft | 276 kts | 351° |
| 2026-05-05 17:09 | 29.40245 | 47.89550 | 9327 ft | 283 kts | 9° |
| 2026-05-05 17:10 | 29.42107 | 47.90274 | 9987 ft | 288 kts | 29° |
| 2026-05-05 17:10 | 29.43932 | 47.91485 | 9933 ft | 319 kts | 33° |
| 2026-05-05 17:10 | 29.45604 | 47.93354 | 9681 ft | 353 kts | 55° |
| 2026-05-05 17:10 | 29.46791 | 47.95943 | 9412 ft | 383 kts | 69° |
| 2026-05-05 17:11 | 29.47491 | 47.98987 | 9146 ft | 409 kts | 80° |
| 2026-05-05 17:11 | 29.47705 | 48.02305 | 8882 ft | 431 kts | 90° |
| 2026-05-05 17:11 | 29.47413 | 48.05653 | 8620 ft | 410 kts | 99° |
| 2026-05-05 17:11 | 29.46861 | 48.08776 | 8361 ft | 387 kts | 105° |
| 2026-05-05 17:12 | 29.45935 | 48.11562 | 8161 ft | 364 kts | 116° |
| 2026-05-05 17:12 | 29.44730 | 48.14027 | 7820 ft | 355 kts | 123° |
| 2026-05-05 17:12 | 29.43312 | 48.16320 | 7456 ft | 347 kts | 126° |
| 2026-05-05 17:12 | 29.41901 | 48.18562 | 7087 ft | 344 kts | 126° |
| 2026-05-05 17:13 | 29.40511 | 48.20767 | 6718 ft | 343 kts | 126° |
| 2026-05-05 17:13 | 29.39158 | 48.22991 | 6340 ft | 340 kts | 120° |
| 2026-05-05 17:13 | 29.38232 | 48.25499 | 5966 ft | 339 kts | 109° |
| 2026-05-05 17:13 | 29.37465 | 48.28050 | 5593 ft | 338 kts | 109° |
| 2026-05-05 17:14 | 29.36720 | 48.30557 | 5224 ft | 334 kts | 108° |
| 2026-05-05 17:14 | 29.35973 | 48.33075 | 4851 ft | 332 kts | 108° |
| 2026-05-05 17:14 | 29.35231 | 48.35572 | 4479 ft | 330 kts | 108° |
| 2026-05-05 17:14 | 29.34500 | 48.38036 | 4242 ft | 326 kts | 108° |
| 2026-05-05 17:15 | 29.33769 | 48.40502 | 4221 ft | 328 kts | 108° |
| 2026-05-05 17:15 | 29.32982 | 48.42968 | 4214 ft | 328 kts | 115° |
| 2026-05-05 17:15 | 29.31627 | 48.45024 | 4210 ft | 328 kts | 138° |
| 2026-05-05 17:15 | 29.29652 | 48.46340 | 4207 ft | 328 kts | 161° |
| 2026-05-05 17:16 | 29.27412 | 48.46677 | 4206 ft | 328 kts | 184° |
| 2026-05-05 17:16 | 29.25202 | 48.45990 | 4205 ft | 328 kts | 206° |
| 2026-05-05 17:16 | 29.23333 | 48.44530 | 4218 ft | 327 kts | 218° |
| 2026-05-05 17:16 | 29.21549 | 48.42916 | 4219 ft | 326 kts | 218° |
| 2026-05-05 17:17 | 29.19919 | 48.41102 | 4210 ft | 325 kts | 233° |
| 2026-05-05 17:17 | 29.18727 | 48.38940 | 4219 ft | 325 kts | 239° |
| 2026-05-05 17:17 | 29.17567 | 48.36689 | 4219 ft | 325 kts | 239° |
| 2026-05-05 17:17 | 29.16433 | 48.34481 | 4219 ft | 325 kts | 239° |
| 2026-05-05 17:18 | 29.15283 | 48.32242 | 4219 ft | 325 kts | 239° |
| 2026-05-05 17:18 | 29.14146 | 48.30027 | 4219 ft | 325 kts | 239° |
| 2026-05-05 17:18 | 29.12994 | 48.27786 | 4219 ft | 325 kts | 239° |
| 2026-05-05 17:18 | 29.11857 | 48.25571 | 4219 ft | 325 kts | 239° |
| 2026-05-05 17:19 | 29.10701 | 48.23321 | 4219 ft | 325 kts | 239° |
| 2026-05-05 17:19 | 29.09565 | 48.21110 | 4219 ft | 325 kts | 239° |
| 2026-05-05 17:19 | 29.08474 | 48.18850 | 4213 ft | 325 kts | 247° |
| 2026-05-05 17:19 | 29.08029 | 48.16328 | 4207 ft | 325 kts | 268° |
| 2026-05-05 17:20 | 29.08052 | 48.13763 | 4219 ft | 325 kts | 271° |
| 2026-05-05 17:20 | 29.08116 | 48.11176 | 4219 ft | 325 kts | 271° |
| 2026-05-05 17:20 | 29.08182 | 48.08608 | 4200 ft | 313 kts | 271° |
| 2026-05-05 17:20 | 29.08243 | 48.06240 | 4212 ft | 290 kts | 271° |
| 2026-05-05 17:21 | 29.08300 | 48.03998 | 4214 ft | 269 kts | 271° |
| 2026-05-05 17:21 | 29.08500 | 48.01951 | 4205 ft | 258 kts | 289° |
| 2026-05-05 17:21 | 29.09443 | 48.00247 | 4200 ft | 251 kts | 318° |
| 2026-05-05 17:22 | 29.12619 | 47.98713 | 4219 ft | 250 kts | 343° |
| 2026-05-05 17:22 | 29.13980 | 47.98258 | 1222 ft | 108 kts | 343° |
| 2026-05-05 17:22 | 29.15199 | 47.97855 | 1342 ft | 212 kts | 343° |
| 2026-05-05 17:22 | 29.16672 | 47.97335 | 1105 ft | 224 kts | 340° |
| 2026-05-05 17:23 | 29.18094 | 47.96691 | 635 ft | 213 kts | 336° |
| 2026-05-05 17:23 | 29.19386 | 47.96014 | 251 ft | 191 kts | 334° |
| 2026-05-05 17:23 | 29.20492 | 47.95428 | 173 ft | 159 kts | 335° |
| 2026-05-05 17:23 | 29.21360 | 47.94973 | 160 ft | 115 kts | 334° |
| 2026-05-05 17:24 | 29.21981 | 47.94639 | 163 ft | 84 kts | 335° |
| 2026-05-05 17:24 | 29.22462 | 47.94388 | 163 ft | 70 kts | 335° |
| 2026-05-05 17:24 | 29.22755 | 47.94271 | 165 ft | 20 kts | 39° |
| 2026-05-05 17:24 | 29.22825 | 47.94409 | 166 ft | 19 kts | 65° |
| 2026-05-05 17:25 | 29.22825 | 47.94550 | 166 ft | 19 kts | 120° |
| 2026-05-05 17:25 | 29.22763 | 47.94593 | 166 ft | 15 kts | 164° |
| 2026-05-05 17:25 | 29.22624 | 47.94657 | 165 ft | 17 kts | 155° |
| 2026-05-05 17:25 | 29.22511 | 47.94718 | 163 ft | 18 kts | 155° |
| 2026-05-05 17:26 | 29.22392 | 47.94781 | 163 ft | 18 kts | 155° |
| 2026-05-05 17:26 | 29.22271 | 47.94846 | 163 ft | 19 kts | 155° |
| 2026-05-05 17:26 | 29.22151 | 47.94908 | 162 ft | 19 kts | 155° |
| 2026-05-05 17:26 | 29.22066 | 47.94996 | 161 ft | 15 kts | 92° |
| 2026-05-05 17:27 | 29.22106 | 47.95110 | 162 ft | 15 kts | 64° |
| 2026-05-05 17:27 | 29.22151 | 47.95221 | 163 ft | 15 kts | 67° |
| 2026-05-05 17:27 | 29.22195 | 47.95336 | 163 ft | 16 kts | 65° |
| 2026-05-05 17:27 | 29.22244 | 47.95453 | 162 ft | 16 kts | 64° |
| 2026-05-05 17:28 | 29.22309 | 47.95611 | 159 ft | 27 kts | 65° |
| 2026-05-05 17:28 | 29.22401 | 47.95836 | 158 ft | 35 kts | 65° |
| 2026-05-05 17:28 | 29.22495 | 47.96066 | 156 ft | 27 kts | 65° |
| 2026-05-05 17:28 | 29.22576 | 47.96267 | 155 ft | 27 kts | 64° |
| 2026-05-05 17:29 | 29.22650 | 47.96443 | 155 ft | 17 kts | 65° |
| 2026-05-05 17:29 | 29.22704 | 47.96561 | 156 ft | 16 kts | 46° |
| 2026-05-05 17:29 | 29.22814 | 47.96566 | 154 ft | 17 kts | 335° |
| 2026-05-05 17:29 | 29.22928 | 47.96503 | 153 ft | 18 kts | 337° |
| 2026-05-05 17:30 | 29.23008 | 47.96513 | 153 ft | 14 kts | 44° |
| 2026-05-05 17:30 | 29.23064 | 47.96626 | 153 ft | 18 kts | 64° |
| 2026-05-05 17:30 | 29.23122 | 47.96771 | 154 ft | 21 kts | 66° |
| 2026-05-05 17:30 | 29.23134 | 47.96801 | 154 ft | 0 kts | 65° |
| 2026-05-05 17:31 | 29.23152 | 47.96844 | 154 ft | 15 kts | 65° |
| 2026-05-05 17:31 | 29.23165 | 47.96866 | 154 ft | 0 kts | 19° |
| 2026-05-05 17:31 | 29.23233 | 47.96835 | 153 ft | 23 kts | 335° |
| 2026-05-05 17:31 | 29.23433 | 47.96728 | 151 ft | 35 kts | 335° |
| 2026-05-05 17:32 | 29.23655 | 47.96611 | 150 ft | 34 kts | 336° |
| 2026-05-05 17:32 | 29.23828 | 47.96521 | 150 ft | 22 kts | 334° |
| 2026-05-05 17:32 | 29.23970 | 47.96444 | 149 ft | 22 kts | 335° |
| 2026-05-05 17:32 | 29.24114 | 47.96367 | 147 ft | 23 kts | 335° |
| 2026-05-05 17:33 | 29.24267 | 47.96286 | 144 ft | 24 kts | 334° |
| 2026-05-05 17:33 | 29.24423 | 47.96202 | 143 ft | 24 kts | 334° |
| 2026-05-05 17:33 | 29.24579 | 47.96119 | 143 ft | 24 kts | 335° |
| 2026-05-05 17:33 | 29.24738 | 47.96038 | 141 ft | 25 kts | 335° |
| 2026-05-05 17:34 | 29.24851 | 47.96002 | 140 ft | 14 kts | 26° |
| 2026-05-05 17:34 | 29.24908 | 47.96081 | 140 ft | 0 kts | 54° |